sensor_id;sensor_type;location;lat;lon;timestamp;temperature;humidity
6758;DHT22;3416;53.074;8.822;2024-01-15T00:00:20;2.50;99.90
6758;DHT22;3416;53.074;8.822;2024-01-15T00:02:48;2.50;99.90
6758;DHT22;3416;53.074;8.822;2024-01-15T00:05:15;2.60;99.90
6758;DHT22;3416;53.074;8.822;2024-01-15T00:07:42;2.50;99.90
6758;DHT22;3416;53.074;8.822;2024-01-15T00:10:09;2.60;99.90
6758;DHT22;3416;53.074;8.822;2024-01-15T00:12:36;2.50;99.90
6758;DHT22;3416;53.074;8.822;2024-01-15T00:15:04;2.50;99.90
6758;DHT22;3416;53.074;8.822;2024-01-15T00:17:32;2.50;99.90
6758;DHT22;3416;53.074;8.822;2024-01-15T00:20:00;2.50;99.90
6758;DHT22;3416;53.074;8.822;2024-01-15T00:22:27;2.60;99.90
6758;DHT22;3416;53.074;8.822;2024-01-15T00:24:54;2.60;99.90
6758;DHT22;3416;53.074;8.822;2024-01-15T00:27:22;2.60;99.90
6758;DHT22;3416;53.074;8.822;2024-01-15T00:29:49;2.70;99.90
6758;DHT22;3416;53.074;8.822;2024-01-15T00:32:17;2.80;99.90
6758;DHT22;3416;53.074;8.822;2024-01-15T00:34:45;2.80;99.90
6758;DHT22;3416;53.074;8.822;2024-01-15T00:37:13;2.90;99.90
6758;DHT22;3416;53.074;8.822;2024-01-15T00:39:40;2.90;99.90
6758;DHT22;3416;53.074;8.822;2024-01-15T00:42:08;2.90;99.90
6758;DHT22;3416;53.074;8.822;2024-01-15T00:44:34;2.90;99.90
6758;DHT22;3416;53.074;8.822;2024-01-15T00:47:01;2.90;99.90
6758;DHT22;3416;53.074;8.822;2024-01-15T00:49:29;3.00;99.90
6758;DHT22;3416;53.074;8.822;2024-01-15T00:51:56;3.00;99.90
6758;DHT22;3416;53.074;8.822;2024-01-15T00:54:24;3.00;99.90
6758;DHT22;3416;53.074;8.822;2024-01-15T00:56:51;3.10;99.90
6758;DHT22;3416;53.074;8.822;2024-01-15T00:59:18;3.20;99.90
6758;DHT22;3416;53.074;8.822;2024-01-15T01:01:46;3.30;99.90
6758;DHT22;3416;53.074;8.822;2024-01-15T01:04:13;3.10;99.90
6758;DHT22;3416;53.074;8.822;2024-01-15T01:06:40;3.20;99.90
6758;DHT22;3416;53.074;8.822;2024-01-15T01:09:07;3.10;99.90
6758;DHT22;3416;53.074;8.822;2024-01-15T01:11:36;3.10;99.90
6758;DHT22;3416;53.074;8.822;2024-01-15T01:14:03;3.20;99.90
6758;DHT22;3416;53.074;8.822;2024-01-15T01:16:30;3.00;99.90
6758;DHT22;3416;53.074;8.822;2024-01-15T01:18:59;3.10;99.90
6758;DHT22;3416;53.074;8.822;2024-01-15T01:21:26;3.10;99.90
6758;DHT22;3416;53.074;8.822;2024-01-15T01:23:54;3.10;99.90
6758;DHT22;3416;53.074;8.822;2024-01-15T01:26:20;3.10;99.90
6758;DHT22;3416;53.074;8.822;2024-01-15T01:28:49;3.20;99.90
6758;DHT22;3416;53.074;8.822;2024-01-15T01:31:16;3.20;99.90
6758;DHT22;3416;53.074;8.822;2024-01-15T01:33:43;3.20;99.90
6758;DHT22;3416;53.074;8.822;2024-01-15T01:36:10;3.00;99.90
6758;DHT22;3416;53.074;8.822;2024-01-15T01:38:37;2.80;99.90
6758;DHT22;3416;53.074;8.822;2024-01-15T01:41:04;2.80;99.90
6758;DHT22;3416;53.074;8.822;2024-01-15T01:43:31;2.80;99.90
6758;DHT22;3416;53.074;8.822;2024-01-15T01:46:01;2.70;99.90
6758;DHT22;3416;53.074;8.822;2024-01-15T01:48:30;2.60;99.90
6758;DHT22;3416;53.074;8.822;2024-01-15T01:50:59;2.40;99.90
6758;DHT22;3416;53.074;8.822;2024-01-15T01:53:26;2.50;99.90
6758;DHT22;3416;53.074;8.822;2024-01-15T01:55:54;2.60;99.90
6758;DHT22;3416;53.074;8.822;2024-01-15T01:58:23;2.60;99.90
6758;DHT22;3416;53.074;8.822;2024-01-15T02:00:51;2.70;99.90
6758;DHT22;3416;53.074;8.822;2024-01-15T02:03:19;2.60;99.90
6758;DHT22;3416;53.074;8.822;2024-01-15T02:05:48;2.50;99.90
6758;DHT22;3416;53.074;8.822;2024-01-15T02:08:15;2.60;99.90
6758;DHT22;3416;53.074;8.822;2024-01-15T02:10:42;2.60;99.90
6758;DHT22;3416;53.074;8.822;2024-01-15T02:13:09;2.60;99.90
6758;DHT22;3416;53.074;8.822;2024-01-15T02:15:36;2.60;99.90
6758;DHT22;3416;53.074;8.822;2024-01-15T02:18:04;2.60;99.90
6758;DHT22;3416;53.074;8.822;2024-01-15T02:20:34;2.60;99.90
6758;DHT22;3416;53.074;8.822;2024-01-15T02:23:08;2.60;99.90
6758;DHT22;3416;53.074;8.822;2024-01-15T02:25:37;2.70;99.90
6758;DHT22;3416;53.074;8.822;2024-01-15T02:28:06;2.70;99.90
6758;DHT22;3416;53.074;8.822;2024-01-15T02:30:35;2.70;99.90
6758;DHT22;3416;53.074;8.822;2024-01-15T02:33:03;2.70;99.90
6758;DHT22;3416;53.074;8.822;2024-01-15T02:35:30;2.80;99.90
6758;DHT22;3416;53.074;8.822;2024-01-15T02:37:57;2.90;99.90
6758;DHT22;3416;53.074;8.822;2024-01-15T02:40:26;2.90;99.90
6758;DHT22;3416;53.074;8.822;2024-01-15T02:42:53;2.90;99.90
6758;DHT22;3416;53.074;8.822;2024-01-15T02:45:20;2.90;99.90
6758;DHT22;3416;53.074;8.822;2024-01-15T02:47:46;2.90;99.90
6758;DHT22;3416;53.074;8.822;2024-01-15T02:50:14;3.10;99.90
6758;DHT22;3416;53.074;8.822;2024-01-15T02:52:41;3.00;99.90
6758;DHT22;3416;53.074;8.822;2024-01-15T02:55:09;3.00;99.90
6758;DHT22;3416;53.074;8.822;2024-01-15T02:57:37;3.00;99.90
6758;DHT22;3416;53.074;8.822;2024-01-15T03:00:05;3.10;99.90
6758;DHT22;3416;53.074;8.822;2024-01-15T03:02:35;3.00;99.90
6758;DHT22;3416;53.074;8.822;2024-01-15T03:05:02;2.90;99.90
6758;DHT22;3416;53.074;8.822;2024-01-15T03:07:30;2.90;99.90
6758;DHT22;3416;53.074;8.822;2024-01-15T03:09:57;2.90;99.90
6758;DHT22;3416;53.074;8.822;2024-01-15T03:12:24;2.90;99.90
6758;DHT22;3416;53.074;8.822;2024-01-15T03:14:52;2.80;99.90
6758;DHT22;3416;53.074;8.822;2024-01-15T03:17:19;2.80;99.90
6758;DHT22;3416;53.074;8.822;2024-01-15T03:19:46;2.70;99.90
6758;DHT22;3416;53.074;8.822;2024-01-15T03:22:15;2.70;99.90
6758;DHT22;3416;53.074;8.822;2024-01-15T03:24:42;2.70;99.90
6758;DHT22;3416;53.074;8.822;2024-01-15T03:27:09;2.60;99.90
6758;DHT22;3416;53.074;8.822;2024-01-15T03:29:36;2.60;99.90
6758;DHT22;3416;53.074;8.822;2024-01-15T03:32:04;2.60;99.90
6758;DHT22;3416;53.074;8.822;2024-01-15T03:34:31;2.60;99.90
6758;DHT22;3416;53.074;8.822;2024-01-15T03:36:58;2.60;99.90
6758;DHT22;3416;53.074;8.822;2024-01-15T03:39:25;2.60;99.90
6758;DHT22;3416;53.074;8.822;2024-01-15T03:41:52;2.60;99.90
6758;DHT22;3416;53.074;8.822;2024-01-15T03:44:19;2.60;99.90
6758;DHT22;3416;53.074;8.822;2024-01-15T03:46:46;2.60;99.90
6758;DHT22;3416;53.074;8.822;2024-01-15T03:49:14;2.60;99.90
6758;DHT22;3416;53.074;8.822;2024-01-15T03:51:41;2.60;99.90
6758;DHT22;3416;53.074;8.822;2024-01-15T03:54:08;2.70;99.90
6758;DHT22;3416;53.074;8.822;2024-01-15T03:56:35;2.60;99.90
6758;DHT22;3416;53.074;8.822;2024-01-15T03:59:02;2.70;99.90
6758;DHT22;3416;53.074;8.822;2024-01-15T04:01:29;2.70;99.90
6758;DHT22;3416;53.074;8.822;2024-01-15T04:03:56;2.70;99.90
6758;DHT22;3416;53.074;8.822;2024-01-15T04:06:24;2.70;99.90
6758;DHT22;3416;53.074;8.822;2024-01-15T04:08:52;2.70;99.90
6758;DHT22;3416;53.074;8.822;2024-01-15T04:11:19;2.70;99.90
6758;DHT22;3416;53.074;8.822;2024-01-15T04:13:48;2.70;99.90
6758;DHT22;3416;53.074;8.822;2024-01-15T04:16:15;2.80;99.90
6758;DHT22;3416;53.074;8.822;2024-01-15T04:18:42;2.80;99.90
6758;DHT22;3416;53.074;8.822;2024-01-15T04:21:08;2.80;99.90
6758;DHT22;3416;53.074;8.822;2024-01-15T04:23:37;2.80;99.90
6758;DHT22;3416;53.074;8.822;2024-01-15T04:26:05;3.00;99.90
6758;DHT22;3416;53.074;8.822;2024-01-15T04:28:32;2.80;99.90
6758;DHT22;3416;53.074;8.822;2024-01-15T04:30:59;2.80;99.90
6758;DHT22;3416;53.074;8.822;2024-01-15T04:33:26;2.70;99.90
6758;DHT22;3416;53.074;8.822;2024-01-15T04:35:53;2.90;99.90
6758;DHT22;3416;53.074;8.822;2024-01-15T04:38:20;2.80;99.90
6758;DHT22;3416;53.074;8.822;2024-01-15T04:40:48;2.80;99.90
6758;DHT22;3416;53.074;8.822;2024-01-15T04:43:15;2.90;99.90
6758;DHT22;3416;53.074;8.822;2024-01-15T04:45:42;2.90;99.90
6758;DHT22;3416;53.074;8.822;2024-01-15T04:48:09;3.00;99.90
6758;DHT22;3416;53.074;8.822;2024-01-15T04:50:36;3.00;99.90
6758;DHT22;3416;53.074;8.822;2024-01-15T04:53:03;3.00;99.90
6758;DHT22;3416;53.074;8.822;2024-01-15T04:55:30;3.10;99.90
6758;DHT22;3416;53.074;8.822;2024-01-15T04:58:00;3.10;99.90
6758;DHT22;3416;53.074;8.822;2024-01-15T05:00:33;3.10;99.90
6758;DHT22;3416;53.074;8.822;2024-01-15T05:03:00;3.20;99.90
6758;DHT22;3416;53.074;8.822;2024-01-15T05:05:26;3.00;99.90
6758;DHT22;3416;53.074;8.822;2024-01-15T05:07:53;3.00;99.90
6758;DHT22;3416;53.074;8.822;2024-01-15T05:10:20;3.00;99.90
6758;DHT22;3416;53.074;8.822;2024-01-15T05:12:47;2.90;99.90
6758;DHT22;3416;53.074;8.822;2024-01-15T05:15:16;2.90;99.90
6758;DHT22;3416;53.074;8.822;2024-01-15T05:17:43;2.80;99.90
6758;DHT22;3416;53.074;8.822;2024-01-15T05:20:10;2.80;99.90
6758;DHT22;3416;53.074;8.822;2024-01-15T05:22:37;2.80;99.90
6758;DHT22;3416;53.074;8.822;2024-01-15T05:25:05;2.80;99.90
6758;DHT22;3416;53.074;8.822;2024-01-15T05:27:32;2.80;99.90
6758;DHT22;3416;53.074;8.822;2024-01-15T05:29:59;2.80;99.90
6758;DHT22;3416;53.074;8.822;2024-01-15T05:32:28;2.80;99.90
6758;DHT22;3416;53.074;8.822;2024-01-15T05:34:55;2.80;99.90
6758;DHT22;3416;53.074;8.822;2024-01-15T05:37:22;2.80;99.90
6758;DHT22;3416;53.074;8.822;2024-01-15T05:39:49;2.80;99.90
6758;DHT22;3416;53.074;8.822;2024-01-15T05:42:16;2.70;99.90
6758;DHT22;3416;53.074;8.822;2024-01-15T05:44:43;2.70;99.90
6758;DHT22;3416;53.074;8.822;2024-01-15T05:47:10;2.70;99.90
6758;DHT22;3416;53.074;8.822;2024-01-15T05:49:38;2.80;99.90
6758;DHT22;3416;53.074;8.822;2024-01-15T05:52:05;2.80;99.90
6758;DHT22;3416;53.074;8.822;2024-01-15T05:54:32;2.80;99.90
6758;DHT22;3416;53.074;8.822;2024-01-15T05:56:59;2.90;99.90
6758;DHT22;3416;53.074;8.822;2024-01-15T05:59:26;2.90;99.90
6758;DHT22;3416;53.074;8.822;2024-01-15T06:01:57;3.00;99.90
6758;DHT22;3416;53.074;8.822;2024-01-15T06:04:24;3.10;99.90
6758;DHT22;3416;53.074;8.822;2024-01-15T06:06:53;3.20;99.90
6758;DHT22;3416;53.074;8.822;2024-01-15T06:09:20;3.10;99.90
6758;DHT22;3416;53.074;8.822;2024-01-15T06:11:47;3.10;99.90
6758;DHT22;3416;53.074;8.822;2024-01-15T06:14:14;3.20;99.90
6758;DHT22;3416;53.074;8.822;2024-01-15T06:16:41;3.10;99.90
6758;DHT22;3416;53.074;8.822;2024-01-15T06:19:08;3.10;99.90
6758;DHT22;3416;53.074;8.822;2024-01-15T06:21:35;3.20;99.90
6758;DHT22;3416;53.074;8.822;2024-01-15T06:24:03;3.00;99.90
6758;DHT22;3416;53.074;8.822;2024-01-15T06:26:30;3.00;99.90
6758;DHT22;3416;53.074;8.822;2024-01-15T06:28:57;2.90;99.90
6758;DHT22;3416;53.074;8.822;2024-01-15T06:31:24;2.90;99.90
6758;DHT22;3416;53.074;8.822;2024-01-15T06:33:51;3.00;99.90
6758;DHT22;3416;53.074;8.822;2024-01-15T06:36:18;2.90;99.90
6758;DHT22;3416;53.074;8.822;2024-01-15T06:38:45;3.00;99.90
6758;DHT22;3416;53.074;8.822;2024-01-15T06:41:14;2.90;99.90
6758;DHT22;3416;53.074;8.822;2024-01-15T06:43:41;2.80;99.90
6758;DHT22;3416;53.074;8.822;2024-01-15T06:46:08;2.80;99.90
6758;DHT22;3416;53.074;8.822;2024-01-15T06:48:35;2.90;99.90
6758;DHT22;3416;53.074;8.822;2024-01-15T06:51:04;2.90;99.90
6758;DHT22;3416;53.074;8.822;2024-01-15T06:53:31;3.00;99.90
6758;DHT22;3416;53.074;8.822;2024-01-15T06:55:58;3.10;99.90
6758;DHT22;3416;53.074;8.822;2024-01-15T06:58:26;3.10;99.90
6758;DHT22;3416;53.074;8.822;2024-01-15T07:00:53;3.10;99.90
6758;DHT22;3416;53.074;8.822;2024-01-15T07:03:20;3.10;99.90
6758;DHT22;3416;53.074;8.822;2024-01-15T07:05:48;3.10;99.90
6758;DHT22;3416;53.074;8.822;2024-01-15T07:08:15;3.00;99.90
6758;DHT22;3416;53.074;8.822;2024-01-15T07:10:42;3.00;99.90
6758;DHT22;3416;53.074;8.822;2024-01-15T07:13:09;3.00;99.90
6758;DHT22;3416;53.074;8.822;2024-01-15T07:15:37;2.90;99.90
6758;DHT22;3416;53.074;8.822;2024-01-15T07:18:05;2.80;99.90
6758;DHT22;3416;53.074;8.822;2024-01-15T07:20:32;2.70;99.90
6758;DHT22;3416;53.074;8.822;2024-01-15T07:22:59;2.70;99.90
6758;DHT22;3416;53.074;8.822;2024-01-15T07:25:26;2.50;99.90
6758;DHT22;3416;53.074;8.822;2024-01-15T07:27:53;2.50;99.90
6758;DHT22;3416;53.074;8.822;2024-01-15T07:30:20;2.40;99.90
6758;DHT22;3416;53.074;8.822;2024-01-15T07:32:49;2.20;99.90
6758;DHT22;3416;53.074;8.822;2024-01-15T07:35:17;2.20;99.90
6758;DHT22;3416;53.074;8.822;2024-01-15T07:37:45;2.20;99.90
6758;DHT22;3416;53.074;8.822;2024-01-15T07:40:12;2.20;99.90
6758;DHT22;3416;53.074;8.822;2024-01-15T07:42:39;2.30;99.90
6758;DHT22;3416;53.074;8.822;2024-01-15T07:45:08;2.20;99.90
6758;DHT22;3416;53.074;8.822;2024-01-15T07:47:35;2.20;99.90
6758;DHT22;3416;53.074;8.822;2024-01-15T07:50:04;2.20;99.90
6758;DHT22;3416;53.074;8.822;2024-01-15T07:52:31;2.20;99.90
6758;DHT22;3416;53.074;8.822;2024-01-15T07:54:58;2.30;99.90
6758;DHT22;3416;53.074;8.822;2024-01-15T07:57:26;2.40;99.90
6758;DHT22;3416;53.074;8.822;2024-01-15T07:59:53;2.50;99.90
6758;DHT22;3416;53.074;8.822;2024-01-15T08:02:20;2.70;99.90
6758;DHT22;3416;53.074;8.822;2024-01-15T08:04:47;2.70;99.90
6758;DHT22;3416;53.074;8.822;2024-01-15T08:07:15;2.80;99.90
6758;DHT22;3416;53.074;8.822;2024-01-15T08:09:43;2.90;99.90
6758;DHT22;3416;53.074;8.822;2024-01-15T08:12:12;2.90;99.90
6758;DHT22;3416;53.074;8.822;2024-01-15T08:14:41;3.00;99.90
6758;DHT22;3416;53.074;8.822;2024-01-15T08:17:07;2.90;99.90
6758;DHT22;3416;53.074;8.822;2024-01-15T08:19:34;2.90;99.90
6758;DHT22;3416;53.074;8.822;2024-01-15T08:22:01;2.90;99.90
6758;DHT22;3416;53.074;8.822;2024-01-15T08:24:30;2.80;99.90
6758;DHT22;3416;53.074;8.822;2024-01-15T08:26:57;2.70;99.90
6758;DHT22;3416;53.074;8.822;2024-01-15T08:29:24;2.80;99.90
6758;DHT22;3416;53.074;8.822;2024-01-15T08:31:51;2.70;99.90
6758;DHT22;3416;53.074;8.822;2024-01-15T08:34:18;2.70;99.90
6758;DHT22;3416;53.074;8.822;2024-01-15T08:36:45;2.70;99.90
6758;DHT22;3416;53.074;8.822;2024-01-15T08:39:12;2.60;99.90
6758;DHT22;3416;53.074;8.822;2024-01-15T08:41:40;2.70;99.90
6758;DHT22;3416;53.074;8.822;2024-01-15T08:44:07;2.70;99.90
6758;DHT22;3416;53.074;8.822;2024-01-15T08:46:34;2.80;99.90
6758;DHT22;3416;53.074;8.822;2024-01-15T08:49:01;2.80;99.90
6758;DHT22;3416;53.074;8.822;2024-01-15T08:51:29;2.80;99.90
6758;DHT22;3416;53.074;8.822;2024-01-15T08:53:56;2.90;99.90
6758;DHT22;3416;53.074;8.822;2024-01-15T08:56:23;2.80;99.90
6758;DHT22;3416;53.074;8.822;2024-01-15T08:58:52;2.90;99.90
6758;DHT22;3416;53.074;8.822;2024-01-15T09:01:19;3.00;99.90
6758;DHT22;3416;53.074;8.822;2024-01-15T09:03:46;3.20;99.90
6758;DHT22;3416;53.074;8.822;2024-01-15T09:06:14;3.20;99.90
6758;DHT22;3416;53.074;8.822;2024-01-15T09:08:40;3.30;99.90
6758;DHT22;3416;53.074;8.822;2024-01-15T09:11:07;3.20;99.90
6758;DHT22;3416;53.074;8.822;2024-01-15T09:13:34;3.20;99.90
6758;DHT22;3416;53.074;8.822;2024-01-15T09:16:04;3.40;99.90
6758;DHT22;3416;53.074;8.822;2024-01-15T09:18:31;3.30;99.90
6758;DHT22;3416;53.074;8.822;2024-01-15T09:20:58;3.30;99.90
6758;DHT22;3416;53.074;8.822;2024-01-15T09:23:25;3.30;99.90
6758;DHT22;3416;53.074;8.822;2024-01-15T09:25:52;3.30;99.90
6758;DHT22;3416;53.074;8.822;2024-01-15T09:28:20;3.30;99.90
6758;DHT22;3416;53.074;8.822;2024-01-15T09:30:46;3.20;99.90
6758;DHT22;3416;53.074;8.822;2024-01-15T09:33:15;3.50;99.90
6758;DHT22;3416;53.074;8.822;2024-01-15T09:35:46;3.40;99.90
6758;DHT22;3416;53.074;8.822;2024-01-15T09:38:12;3.40;99.90
6758;DHT22;3416;53.074;8.822;2024-01-15T09:40:43;3.50;99.90
6758;DHT22;3416;53.074;8.822;2024-01-15T09:43:10;3.50;99.90
6758;DHT22;3416;53.074;8.822;2024-01-15T09:45:38;3.40;99.90
6758;DHT22;3416;53.074;8.822;2024-01-15T09:48:06;3.10;99.90
6758;DHT22;3416;53.074;8.822;2024-01-15T09:50:35;3.00;99.90
6758;DHT22;3416;53.074;8.822;2024-01-15T09:53:02;3.00;99.90
6758;DHT22;3416;53.074;8.822;2024-01-15T09:55:30;2.90;99.90
6758;DHT22;3416;53.074;8.822;2024-01-15T09:58:00;3.20;99.90
6758;DHT22;3416;53.074;8.822;2024-01-15T10:00:28;3.50;99.90
6758;DHT22;3416;53.074;8.822;2024-01-15T10:02:56;3.40;99.90
6758;DHT22;3416;53.074;8.822;2024-01-15T10:05:23;3.40;99.90
6758;DHT22;3416;53.074;8.822;2024-01-15T10:07:53;3.40;99.90
6758;DHT22;3416;53.074;8.822;2024-01-15T10:10:21;3.40;99.90
6758;DHT22;3416;53.074;8.822;2024-01-15T10:12:49;3.50;99.90
6758;DHT22;3416;53.074;8.822;2024-01-15T10:15:16;3.50;99.90
6758;DHT22;3416;53.074;8.822;2024-01-15T10:17:43;3.50;99.90
6758;DHT22;3416;53.074;8.822;2024-01-15T10:20:11;3.40;99.90
6758;DHT22;3416;53.074;8.822;2024-01-15T10:22:40;3.30;99.90
6758;DHT22;3416;53.074;8.822;2024-01-15T10:25:12;3.30;99.90
6758;DHT22;3416;53.074;8.822;2024-01-15T10:27:39;3.40;99.90
6758;DHT22;3416;53.074;8.822;2024-01-15T10:30:07;3.30;99.90
6758;DHT22;3416;53.074;8.822;2024-01-15T10:32:34;3.30;99.90
6758;DHT22;3416;53.074;8.822;2024-01-15T10:35:01;3.20;99.90
6758;DHT22;3416;53.074;8.822;2024-01-15T10:37:32;3.30;99.90
6758;DHT22;3416;53.074;8.822;2024-01-15T10:40:01;3.20;99.90
6758;DHT22;3416;53.074;8.822;2024-01-15T10:42:32;3.40;99.90
6758;DHT22;3416;53.074;8.822;2024-01-15T10:44:59;3.30;99.90
6758;DHT22;3416;53.074;8.822;2024-01-15T10:47:26;3.50;99.90
6758;DHT22;3416;53.074;8.822;2024-01-15T10:49:53;3.50;99.90
6758;DHT22;3416;53.074;8.822;2024-01-15T10:52:21;3.60;99.90
6758;DHT22;3416;53.074;8.822;2024-01-15T10:54:49;3.80;99.90
6758;DHT22;3416;53.074;8.822;2024-01-15T10:57:16;3.60;99.90
6758;DHT22;3416;53.074;8.822;2024-01-15T10:59:45;3.50;99.90
6758;DHT22;3416;53.074;8.822;2024-01-15T11:02:13;3.50;99.90
6758;DHT22;3416;53.074;8.822;2024-01-15T11:04:41;3.60;99.90
6758;DHT22;3416;53.074;8.822;2024-01-15T11:07:10;3.60;99.90
6758;DHT22;3416;53.074;8.822;2024-01-15T11:09:38;3.30;99.90
6758;DHT22;3416;53.074;8.822;2024-01-15T11:12:09;3.20;99.90
6758;DHT22;3416;53.074;8.822;2024-01-15T11:14:39;3.10;99.90
6758;DHT22;3416;53.074;8.822;2024-01-15T11:17:11;3.30;99.90
6758;DHT22;3416;53.074;8.822;2024-01-15T11:19:42;3.20;99.90
6758;DHT22;3416;53.074;8.822;2024-01-15T11:22:10;3.30;99.90
6758;DHT22;3416;53.074;8.822;2024-01-15T11:24:38;3.40;99.90
6758;DHT22;3416;53.074;8.822;2024-01-15T11:27:06;3.50;99.90
6758;DHT22;3416;53.074;8.822;2024-01-15T11:29:35;3.60;99.90
6758;DHT22;3416;53.074;8.822;2024-01-15T11:32:04;3.70;99.90
6758;DHT22;3416;53.074;8.822;2024-01-15T11:34:55;3.60;99.90
6758;DHT22;3416;53.074;8.822;2024-01-15T11:37:24;3.70;99.90
6758;DHT22;3416;53.074;8.822;2024-01-15T11:39:53;3.80;99.90
6758;DHT22;3416;53.074;8.822;2024-01-15T11:42:21;3.90;99.90
6758;DHT22;3416;53.074;8.822;2024-01-15T11:44:49;3.90;99.90
6758;DHT22;3416;53.074;8.822;2024-01-15T11:47:16;3.90;99.90
6758;DHT22;3416;53.074;8.822;2024-01-15T11:50:02;4.00;99.90
6758;DHT22;3416;53.074;8.822;2024-01-15T11:52:34;3.90;99.90
6758;DHT22;3416;53.074;8.822;2024-01-15T11:55:07;3.90;99.90
6758;DHT22;3416;53.074;8.822;2024-01-15T11:57:42;3.90;99.90
6758;DHT22;3416;53.074;8.822;2024-01-15T12:00:10;4.00;99.90
6758;DHT22;3416;53.074;8.822;2024-01-15T12:02:39;4.20;99.90
6758;DHT22;3416;53.074;8.822;2024-01-15T12:05:09;4.20;99.90
6758;DHT22;3416;53.074;8.822;2024-01-15T12:07:38;4.30;99.90
6758;DHT22;3416;53.074;8.822;2024-01-15T12:10:08;4.40;99.90
6758;DHT22;3416;53.074;8.822;2024-01-15T12:12:54;4.40;99.90
6758;DHT22;3416;53.074;8.822;2024-01-15T12:15:24;4.40;99.90
6758;DHT22;3416;53.074;8.822;2024-01-15T12:17:51;4.40;99.90
6758;DHT22;3416;53.074;8.822;2024-01-15T12:20:19;4.40;99.90
6758;DHT22;3416;53.074;8.822;2024-01-15T12:22:46;4.50;99.90
6758;DHT22;3416;53.074;8.822;2024-01-15T12:25:13;4.50;99.90
6758;DHT22;3416;53.074;8.822;2024-01-15T12:27:40;4.50;99.90
6758;DHT22;3416;53.074;8.822;2024-01-15T12:30:11;4.40;99.90
6758;DHT22;3416;53.074;8.822;2024-01-15T12:32:38;4.40;99.90
6758;DHT22;3416;53.074;8.822;2024-01-15T12:35:05;4.30;99.90
6758;DHT22;3416;53.074;8.822;2024-01-15T12:37:35;4.10;99.90
6758;DHT22;3416;53.074;8.822;2024-01-15T12:40:02;4.20;99.90
6758;DHT22;3416;53.074;8.822;2024-01-15T12:42:30;4.20;99.90
6758;DHT22;3416;53.074;8.822;2024-01-15T12:44:57;4.10;99.90
6758;DHT22;3416;53.074;8.822;2024-01-15T12:47:23;4.10;99.90
6758;DHT22;3416;53.074;8.822;2024-01-15T12:49:51;4.20;99.90
6758;DHT22;3416;53.074;8.822;2024-01-15T12:52:21;4.10;99.90
6758;DHT22;3416;53.074;8.822;2024-01-15T12:54:51;4.00;99.90
6758;DHT22;3416;53.074;8.822;2024-01-15T12:57:18;4.00;99.90
6758;DHT22;3416;53.074;8.822;2024-01-15T12:59:45;4.10;99.90
6758;DHT22;3416;53.074;8.822;2024-01-15T13:02:12;3.90;99.90
6758;DHT22;3416;53.074;8.822;2024-01-15T13:04:40;3.80;99.90
6758;DHT22;3416;53.074;8.822;2024-01-15T13:07:07;3.80;99.90
6758;DHT22;3416;53.074;8.822;2024-01-15T13:09:34;3.60;99.90
6758;DHT22;3416;53.074;8.822;2024-01-15T13:12:03;3.50;99.90
6758;DHT22;3416;53.074;8.822;2024-01-15T13:14:31;3.20;99.90
6758;DHT22;3416;53.074;8.822;2024-01-15T13:16:58;3.20;99.90
6758;DHT22;3416;53.074;8.822;2024-01-15T13:19:25;3.30;99.90
6758;DHT22;3416;53.074;8.822;2024-01-15T13:21:53;3.20;99.90
6758;DHT22;3416;53.074;8.822;2024-01-15T13:24:21;3.30;99.90
6758;DHT22;3416;53.074;8.822;2024-01-15T13:26:48;3.30;99.90
6758;DHT22;3416;53.074;8.822;2024-01-15T13:29:16;3.20;99.90
6758;DHT22;3416;53.074;8.822;2024-01-15T13:31:43;3.00;99.90
6758;DHT22;3416;53.074;8.822;2024-01-15T13:34:12;3.10;99.90
6758;DHT22;3416;53.074;8.822;2024-01-15T13:36:39;3.00;99.90
6758;DHT22;3416;53.074;8.822;2024-01-15T13:39:07;2.80;99.90
6758;DHT22;3416;53.074;8.822;2024-01-15T13:41:35;2.70;99.90
6758;DHT22;3416;53.074;8.822;2024-01-15T13:44:02;2.60;99.90
6758;DHT22;3416;53.074;8.822;2024-01-15T13:46:30;2.60;99.90
6758;DHT22;3416;53.074;8.822;2024-01-15T13:48:57;2.60;99.90
6758;DHT22;3416;53.074;8.822;2024-01-15T13:51:25;2.50;99.90
6758;DHT22;3416;53.074;8.822;2024-01-15T13:53:51;2.60;99.90
6758;DHT22;3416;53.074;8.822;2024-01-15T13:56:19;2.60;99.90
6758;DHT22;3416;53.074;8.822;2024-01-15T13:58:46;2.70;99.90
6758;DHT22;3416;53.074;8.822;2024-01-15T14:01:15;2.70;99.90
6758;DHT22;3416;53.074;8.822;2024-01-15T14:03:44;2.80;99.90
6758;DHT22;3416;53.074;8.822;2024-01-15T14:06:11;2.80;99.90
6758;DHT22;3416;53.074;8.822;2024-01-15T14:08:38;3.00;99.90
6758;DHT22;3416;53.074;8.822;2024-01-15T14:11:05;3.00;99.90
6758;DHT22;3416;53.074;8.822;2024-01-15T14:13:32;3.10;99.90
6758;DHT22;3416;53.074;8.822;2024-01-15T14:16:00;3.10;99.90
6758;DHT22;3416;53.074;8.822;2024-01-15T14:18:27;3.20;99.90
6758;DHT22;3416;53.074;8.822;2024-01-15T14:20:55;3.30;99.90
6758;DHT22;3416;53.074;8.822;2024-01-15T14:23:22;3.30;99.90
6758;DHT22;3416;53.074;8.822;2024-01-15T14:25:49;3.20;99.90
6758;DHT22;3416;53.074;8.822;2024-01-15T14:28:16;3.30;99.90
6758;DHT22;3416;53.074;8.822;2024-01-15T14:30:43;3.40;99.90
6758;DHT22;3416;53.074;8.822;2024-01-15T14:33:10;3.40;99.90
6758;DHT22;3416;53.074;8.822;2024-01-15T14:35:37;3.40;99.90
6758;DHT22;3416;53.074;8.822;2024-01-15T14:38:05;3.30;99.90
6758;DHT22;3416;53.074;8.822;2024-01-15T14:40:34;3.20;99.90
6758;DHT22;3416;53.074;8.822;2024-01-15T14:43:01;3.20;99.90
6758;DHT22;3416;53.074;8.822;2024-01-15T14:45:28;3.10;99.90
6758;DHT22;3416;53.074;8.822;2024-01-15T14:47:55;3.20;99.90
6758;DHT22;3416;53.074;8.822;2024-01-15T14:50:24;3.20;99.90
6758;DHT22;3416;53.074;8.822;2024-01-15T14:52:50;3.20;99.90
6758;DHT22;3416;53.074;8.822;2024-01-15T14:55:19;3.40;99.90
6758;DHT22;3416;53.074;8.822;2024-01-15T14:57:47;3.40;99.90
6758;DHT22;3416;53.074;8.822;2024-01-15T15:00:15;3.40;99.90
6758;DHT22;3416;53.074;8.822;2024-01-15T15:02:42;3.50;99.90
6758;DHT22;3416;53.074;8.822;2024-01-15T15:05:09;3.50;99.90
6758;DHT22;3416;53.074;8.822;2024-01-15T15:07:39;3.40;99.90
6758;DHT22;3416;53.074;8.822;2024-01-15T15:10:07;3.40;99.90
6758;DHT22;3416;53.074;8.822;2024-01-15T15:12:36;3.30;99.90
6758;DHT22;3416;53.074;8.822;2024-01-15T15:15:03;3.30;99.90
6758;DHT22;3416;53.074;8.822;2024-01-15T15:17:30;3.30;99.90
6758;DHT22;3416;53.074;8.822;2024-01-15T15:19:58;3.30;99.90
6758;DHT22;3416;53.074;8.822;2024-01-15T15:22:24;3.30;99.90
6758;DHT22;3416;53.074;8.822;2024-01-15T15:24:52;3.40;99.90
6758;DHT22;3416;53.074;8.822;2024-01-15T15:27:20;3.30;99.90
6758;DHT22;3416;53.074;8.822;2024-01-15T15:29:48;3.30;99.90
6758;DHT22;3416;53.074;8.822;2024-01-15T15:32:16;3.30;99.90
6758;DHT22;3416;53.074;8.822;2024-01-15T15:34:43;3.30;99.90
6758;DHT22;3416;53.074;8.822;2024-01-15T15:37:10;3.30;99.90
6758;DHT22;3416;53.074;8.822;2024-01-15T15:39:38;3.20;99.90
6758;DHT22;3416;53.074;8.822;2024-01-15T15:42:05;3.20;99.90
6758;DHT22;3416;53.074;8.822;2024-01-15T15:44:32;3.30;99.90
6758;DHT22;3416;53.074;8.822;2024-01-15T15:47:00;3.30;99.90
6758;DHT22;3416;53.074;8.822;2024-01-15T15:49:27;3.20;99.90
6758;DHT22;3416;53.074;8.822;2024-01-15T15:51:54;3.20;99.90
6758;DHT22;3416;53.074;8.822;2024-01-15T15:54:21;3.20;99.90
6758;DHT22;3416;53.074;8.822;2024-01-15T15:56:48;3.20;99.90
6758;DHT22;3416;53.074;8.822;2024-01-15T15:59:16;3.20;99.90
6758;DHT22;3416;53.074;8.822;2024-01-15T16:01:44;3.00;99.90
6758;DHT22;3416;53.074;8.822;2024-01-15T16:04:13;2.90;99.90
6758;DHT22;3416;53.074;8.822;2024-01-15T16:06:40;2.90;99.90
6758;DHT22;3416;53.074;8.822;2024-01-15T16:09:08;2.70;99.90
6758;DHT22;3416;53.074;8.822;2024-01-15T16:11:36;2.70;99.90
6758;DHT22;3416;53.074;8.822;2024-01-15T16:14:04;2.60;99.90
6758;DHT22;3416;53.074;8.822;2024-01-15T16:16:31;2.60;99.90
6758;DHT22;3416;53.074;8.822;2024-01-15T16:18:58;2.60;99.90